sensor_id;sensor_type;location;lat;lon;timestamp;P1;durP1;ratioP1;P2;durP2;ratioP2
77432;SDS011;66752;48.576;8.876;2023-04-22T00:03:03;5.70;;;3.33;;
77432;SDS011;66752;48.576;8.876;2023-04-22T00:05:29;5.88;;;2.60;;
77432;SDS011;66752;48.576;8.876;2023-04-22T00:07:55;5.95;;;3.10;;
77432;SDS011;66752;48.576;8.876;2023-04-22T00:10:21;6.90;;;3.65;;
77432;SDS011;66752;48.576;8.876;2023-04-22T00:12:47;9.05;;;3.33;;
77432;SDS011;66752;48.576;8.876;2023-04-22T00:15:13;6.45;;;3.53;;
77432;SDS011;66752;48.576;8.876;2023-04-22T00:17:39;6.13;;;3.38;;
77432;SDS011;66752;48.576;8.876;2023-04-22T00:20:06;5.90;;;3.17;;
77432;SDS011;66752;48.576;8.876;2023-04-22T00:22:34;6.28;;;3.20;;
77432;SDS011;66752;48.576;8.876;2023-04-22T00:25:00;7.13;;;2.53;;
77432;SDS011;66752;48.576;8.876;2023-04-22T00:27:26;4.50;;;2.22;;
77432;SDS011;66752;48.576;8.876;2023-04-22T00:29:52;5.57;;;2.55;;
77432;SDS011;66752;48.576;8.876;2023-04-22T00:32:18;5.05;;;2.33;;
77432;SDS011;66752;48.576;8.876;2023-04-22T00:34:46;5.53;;;2.72;;
77432;SDS011;66752;48.576;8.876;2023-04-22T00:37:13;4.45;;;2.00;;
77432;SDS011;66752;48.576;8.876;2023-04-22T00:39:39;4.70;;;2.45;;
77432;SDS011;66752;48.576;8.876;2023-04-22T00:42:05;5.07;;;2.63;;
77432;SDS011;66752;48.576;8.876;2023-04-22T00:44:31;4.85;;;2.42;;
77432;SDS011;66752;48.576;8.876;2023-04-22T00:46:58;5.15;;;2.67;;
77432;SDS011;66752;48.576;8.876;2023-04-22T00:49:25;5.07;;;2.83;;
77432;SDS011;66752;48.576;8.876;2023-04-22T00:51:51;5.57;;;3.15;;
77432;SDS011;66752;48.576;8.876;2023-04-22T00:54:18;5.28;;;2.90;;
77432;SDS011;66752;48.576;8.876;2023-04-22T00:56:44;6.15;;;2.65;;
77432;SDS011;66752;48.576;8.876;2023-04-22T00:59:10;7.68;;;2.95;;
77432;SDS011;66752;48.576;8.876;2023-04-22T01:01:36;6.18;;;2.70;;
77432;SDS011;66752;48.576;8.876;2023-04-22T01:04:03;5.90;;;2.70;;
77432;SDS011;66752;48.576;8.876;2023-04-22T01:06:29;6.90;;;3.00;;
77432;SDS011;66752;48.576;8.876;2023-04-22T01:08:58;6.28;;;3.22;;
77432;SDS011;66752;48.576;8.876;2023-04-22T01:11:24;5.80;;;3.25;;
77432;SDS011;66752;48.576;8.876;2023-04-22T01:13:50;5.22;;;2.85;;
77432;SDS011;66752;48.576;8.876;2023-04-22T01:16:16;5.28;;;3.25;;
77432;SDS011;66752;48.576;8.876;2023-04-22T01:18:43;6.15;;;3.30;;
77432;SDS011;66752;48.576;8.876;2023-04-22T01:21:09;5.68;;;3.40;;
77432;SDS011;66752;48.576;8.876;2023-04-22T01:23:37;6.13;;;3.28;;
77432;SDS011;66752;48.576;8.876;2023-04-22T01:26:03;5.72;;;2.90;;
77432;SDS011;66752;48.576;8.876;2023-04-22T01:28:29;6.32;;;3.10;;
77432;SDS011;66752;48.576;8.876;2023-04-22T01:30:55;4.45;;;2.53;;
77432;SDS011;66752;48.576;8.876;2023-04-22T01:33:21;6.78;;;2.95;;
77432;SDS011;66752;48.576;8.876;2023-04-22T01:35:47;7.75;;;3.45;;
77432;SDS011;66752;48.576;8.876;2023-04-22T01:38:13;5.70;;;2.70;;
77432;SDS011;66752;48.576;8.876;2023-04-22T01:40:39;5.15;;;2.42;;
77432;SDS011;66752;48.576;8.876;2023-04-22T01:43:05;7.25;;;2.72;;
77432;SDS011;66752;48.576;8.876;2023-04-22T01:45:31;5.20;;;2.83;;
77432;SDS011;66752;48.576;8.876;2023-04-22T01:47:57;4.55;;;2.42;;
77432;SDS011;66752;48.576;8.876;2023-04-22T01:50:23;6.88;;;2.80;;
77432;SDS011;66752;48.576;8.876;2023-04-22T01:52:49;7.38;;;3.25;;
77432;SDS011;66752;48.576;8.876;2023-04-22T01:55:15;4.38;;;2.33;;
77432;SDS011;66752;48.576;8.876;2023-04-22T01:57:41;7.22;;;3.10;;
77432;SDS011;66752;48.576;8.876;2023-04-22T02:00:07;7.45;;;3.03;;
77432;SDS011;66752;48.576;8.876;2023-04-22T02:02:34;5.55;;;2.58;;
77432;SDS011;66752;48.576;8.876;2023-04-22T02:05:00;5.28;;;2.58;;
77432;SDS011;66752;48.576;8.876;2023-04-22T02:07:26;6.53;;;2.95;;
77432;SDS011;66752;48.576;8.876;2023-04-22T02:09:51;5.28;;;2.53;;
77432;SDS011;66752;48.576;8.876;2023-04-22T02:12:17;6.55;;;3.13;;
77432;SDS011;66752;48.576;8.876;2023-04-22T02:14:43;5.90;;;3.00;;
77432;SDS011;66752;48.576;8.876;2023-04-22T02:17:09;4.82;;;2.50;;
77432;SDS011;66752;48.576;8.876;2023-04-22T02:19:35;6.65;;;2.97;;
77432;SDS011;66752;48.576;8.876;2023-04-22T02:22:01;6.10;;;3.20;;
77432;SDS011;66752;48.576;8.876;2023-04-22T02:24:27;6.22;;;3.58;;
77432;SDS011;66752;48.576;8.876;2023-04-22T02:26:53;7.20;;;3.33;;
77432;SDS011;66752;48.576;8.876;2023-04-22T02:29:20;6.50;;;3.13;;
77432;SDS011;66752;48.576;8.876;2023-04-22T02:31:46;5.55;;;2.80;;
77432;SDS011;66752;48.576;8.876;2023-04-22T02:34:12;6.22;;;3.47;;
77432;SDS011;66752;48.576;8.876;2023-04-22T02:36:38;6.15;;;3.08;;
77432;SDS011;66752;48.576;8.876;2023-04-22T02:39:05;6.47;;;2.70;;
77432;SDS011;66752;48.576;8.876;2023-04-22T02:41:31;5.07;;;2.67;;
77432;SDS011;66752;48.576;8.876;2023-04-22T02:43:57;6.65;;;2.85;;
77432;SDS011;66752;48.576;8.876;2023-04-22T02:46:32;7.03;;;2.97;;
77432;SDS011;66752;48.576;8.876;2023-04-22T02:48:58;7.47;;;2.85;;
77432;SDS011;66752;48.576;8.876;2023-04-22T02:51:24;6.13;;;2.92;;
77432;SDS011;66752;48.576;8.876;2023-04-22T02:53:50;5.15;;;2.95;;
77432;SDS011;66752;48.576;8.876;2023-04-22T02:56:17;6.00;;;2.58;;
77432;SDS011;66752;48.576;8.876;2023-04-22T02:58:43;7.22;;;2.90;;
77432;SDS011;66752;48.576;8.876;2023-04-22T03:01:09;6.78;;;3.13;;
77432;SDS011;66752;48.576;8.876;2023-04-22T03:03:35;6.07;;;3.05;;
77432;SDS011;66752;48.576;8.876;2023-04-22T03:06:01;6.35;;;3.53;;
77432;SDS011;66752;48.576;8.876;2023-04-22T03:08:27;6.03;;;2.80;;
77432;SDS011;66752;48.576;8.876;2023-04-22T03:10:53;5.72;;;2.88;;
77432;SDS011;66752;48.576;8.876;2023-04-22T03:13:19;5.78;;;2.80;;
77432;SDS011;66752;48.576;8.876;2023-04-22T03:15:45;5.32;;;2.85;;
77432;SDS011;66752;48.576;8.876;2023-04-22T03:18:11;6.65;;;3.30;;
77432;SDS011;66752;48.576;8.876;2023-04-22T03:20:37;4.80;;;2.80;;
77432;SDS011;66752;48.576;8.876;2023-04-22T03:23:06;4.57;;;2.78;;
77432;SDS011;66752;48.576;8.876;2023-04-22T03:25:32;5.85;;;3.15;;
77432;SDS011;66752;48.576;8.876;2023-04-22T03:27:59;5.43;;;3.15;;
77432;SDS011;66752;48.576;8.876;2023-04-22T03:30:25;5.20;;;2.97;;
77432;SDS011;66752;48.576;8.876;2023-04-22T03:32:51;5.35;;;2.75;;
77432;SDS011;66752;48.576;8.876;2023-04-22T03:35:17;6.53;;;3.20;;
77432;SDS011;66752;48.576;8.876;2023-04-22T03:37:43;6.72;;;3.08;;
77432;SDS011;66752;48.576;8.876;2023-04-22T03:40:09;6.55;;;2.80;;
77432;SDS011;66752;48.576;8.876;2023-04-22T03:42:35;6.00;;;2.88;;
77432;SDS011;66752;48.576;8.876;2023-04-22T03:45:01;5.97;;;3.22;;
77432;SDS011;66752;48.576;8.876;2023-04-22T03:47:27;6.35;;;2.95;;
77432;SDS011;66752;48.576;8.876;2023-04-22T03:49:53;4.90;;;2.80;;
77432;SDS011;66752;48.576;8.876;2023-04-22T03:52:19;5.93;;;2.63;;
77432;SDS011;66752;48.576;8.876;2023-04-22T03:54:45;6.13;;;2.90;;
77432;SDS011;66752;48.576;8.876;2023-04-22T03:57:11;5.85;;;3.33;;
77432;SDS011;66752;48.576;8.876;2023-04-22T03:59:37;6.95;;;3.00;;
77432;SDS011;66752;48.576;8.876;2023-04-22T04:02:03;6.15;;;3.42;;
77432;SDS011;66752;48.576;8.876;2023-04-22T04:04:31;6.70;;;3.97;;
77432;SDS011;66752;48.576;8.876;2023-04-22T04:06:58;5.82;;;3.58;;
77432;SDS011;66752;48.576;8.876;2023-04-22T04:09:24;8.15;;;3.88;;
77432;SDS011;66752;48.576;8.876;2023-04-22T04:11:50;8.00;;;4.18;;
77432;SDS011;66752;48.576;8.876;2023-04-22T04:14:16;8.93;;;4.53;;
77432;SDS011;66752;48.576;8.876;2023-04-22T04:16:43;8.70;;;4.13;;
77432;SDS011;66752;48.576;8.876;2023-04-22T04:19:09;9.23;;;3.60;;
77432;SDS011;66752;48.576;8.876;2023-04-22T04:21:35;7.00;;;3.42;;
77432;SDS011;66752;48.576;8.876;2023-04-22T04:24:01;6.95;;;4.38;;
77432;SDS011;66752;48.576;8.876;2023-04-22T04:26:28;5.85;;;3.60;;
77432;SDS011;66752;48.576;8.876;2023-04-22T04:28:54;9.10;;;4.15;;
77432;SDS011;66752;48.576;8.876;2023-04-22T04:31:20;6.40;;;3.92;;
77432;SDS011;66752;48.576;8.876;2023-04-22T04:33:48;8.70;;;4.32;;
77432;SDS011;66752;48.576;8.876;2023-04-22T04:36:14;11.05;;;6.25;;
77432;SDS011;66752;48.576;8.876;2023-04-22T04:38:40;15.05;;;8.20;;
77432;SDS011;66752;48.576;8.876;2023-04-22T04:41:06;11.50;;;5.95;;
77432;SDS011;66752;48.576;8.876;2023-04-22T04:53:21;13.18;;;6.30;;
77432;SDS011;66752;48.576;8.876;2023-04-22T04:55:47;16.70;;;8.20;;
77432;SDS011;66752;48.576;8.876;2023-04-22T04:58:13;15.35;;;9.20;;
77432;SDS011;66752;48.576;8.876;2023-04-22T05:00:39;15.20;;;7.97;;
77432;SDS011;66752;48.576;8.876;2023-04-22T05:03:05;18.45;;;9.55;;
77432;SDS011;66752;48.576;8.876;2023-04-22T05:05:31;15.93;;;8.48;;
77432;SDS011;66752;48.576;8.876;2023-04-22T05:07:57;13.90;;;8.25;;
77432;SDS011;66752;48.576;8.876;2023-04-22T05:10:23;13.43;;;7.63;;
77432;SDS011;66752;48.576;8.876;2023-04-22T05:12:49;10.23;;;6.43;;
77432;SDS011;66752;48.576;8.876;2023-04-22T05:15:15;11.65;;;6.25;;
77432;SDS011;66752;48.576;8.876;2023-04-22T05:17:42;9.48;;;5.43;;
77432;SDS011;66752;48.576;8.876;2023-04-22T05:20:08;13.02;;;7.28;;
77432;SDS011;66752;48.576;8.876;2023-04-22T05:22:34;10.95;;;6.53;;
77432;SDS011;66752;48.576;8.876;2023-04-22T05:25:05;12.70;;;7.40;;
77432;SDS011;66752;48.576;8.876;2023-04-22T05:27:31;9.48;;;6.28;;
77432;SDS011;66752;48.576;8.876;2023-04-22T05:29:57;11.30;;;6.35;;
77432;SDS011;66752;48.576;8.876;2023-04-22T05:32:23;11.05;;;6.57;;
77432;SDS011;66752;48.576;8.876;2023-04-22T05:34:49;13.20;;;6.53;;
77432;SDS011;66752;48.576;8.876;2023-04-22T05:37:15;10.15;;;5.70;;
77432;SDS011;66752;48.576;8.876;2023-04-22T05:39:41;10.63;;;6.80;;
77432;SDS011;66752;48.576;8.876;2023-04-22T05:42:07;9.77;;;5.70;;
77432;SDS011;66752;48.576;8.876;2023-04-22T05:44:33;11.02;;;5.53;;
77432;SDS011;66752;48.576;8.876;2023-04-22T05:46:59;9.65;;;5.93;;
77432;SDS011;66752;48.576;8.876;2023-04-22T05:49:25;10.15;;;5.95;;
77432;SDS011;66752;48.576;8.876;2023-04-22T05:51:51;8.88;;;5.10;;
77432;SDS011;66752;48.576;8.876;2023-04-22T05:54:17;15.00;;;5.05;;
77432;SDS011;66752;48.576;8.876;2023-04-22T05:56:43;8.13;;;4.85;;
77432;SDS011;66752;48.576;8.876;2023-04-22T05:59:09;8.57;;;4.45;;
77432;SDS011;66752;48.576;8.876;2023-04-22T06:01:35;9.75;;;4.80;;
77432;SDS011;66752;48.576;8.876;2023-04-22T06:04:02;8.27;;;4.55;;
77432;SDS011;66752;48.576;8.876;2023-04-22T06:06:30;7.40;;;4.38;;
77432;SDS011;66752;48.576;8.876;2023-04-22T06:08:56;8.48;;;4.22;;
77432;SDS011;66752;48.576;8.876;2023-04-22T06:11:22;7.07;;;3.83;;
77432;SDS011;66752;48.576;8.876;2023-04-22T06:13:48;6.93;;;4.72;;
77432;SDS011;66752;48.576;8.876;2023-04-22T06:16:14;7.78;;;4.30;;
77432;SDS011;66752;48.576;8.876;2023-04-22T06:18:40;6.93;;;4.10;;
77432;SDS011;66752;48.576;8.876;2023-04-22T06:21:07;6.95;;;4.03;;
77432;SDS011;66752;48.576;8.876;2023-04-22T06:23:33;6.43;;;3.67;;
77432;SDS011;66752;48.576;8.876;2023-04-22T06:25:59;6.47;;;3.95;;
77432;SDS011;66752;48.576;8.876;2023-04-22T06:28:26;8.23;;;4.47;;
77432;SDS011;66752;48.576;8.876;2023-04-22T06:30:52;7.20;;;4.93;;
77432;SDS011;66752;48.576;8.876;2023-04-22T06:33:18;7.90;;;4.70;;
77432;SDS011;66752;48.576;8.876;2023-04-22T06:35:44;9.35;;;4.95;;
77432;SDS011;66752;48.576;8.876;2023-04-22T06:38:10;6.75;;;4.38;;
77432;SDS011;66752;48.576;8.876;2023-04-22T06:40:36;8.10;;;4.55;;
77432;SDS011;66752;48.576;8.876;2023-04-22T06:43:02;8.18;;;4.30;;
77432;SDS011;66752;48.576;8.876;2023-04-22T06:45:28;8.48;;;4.32;;
77432;SDS011;66752;48.576;8.876;2023-04-22T06:47:54;12.32;;;4.88;;
77432;SDS011;66752;48.576;8.876;2023-04-22T06:50:20;7.03;;;3.83;;
77432;SDS011;66752;48.576;8.876;2023-04-22T06:52:46;10.65;;;4.68;;
77432;SDS011;66752;48.576;8.876;2023-04-22T06:55:12;8.32;;;5.13;;
77432;SDS011;66752;48.576;8.876;2023-04-22T06:57:38;7.15;;;4.55;;
77432;SDS011;66752;48.576;8.876;2023-04-22T07:00:05;6.82;;;4.00;;
77432;SDS011;66752;48.576;8.876;2023-04-22T07:02:32;8.50;;;4.70;;
77432;SDS011;66752;48.576;8.876;2023-04-22T07:04:58;7.88;;;4.82;;
77432;SDS011;66752;48.576;8.876;2023-04-22T07:07:24;6.90;;;4.32;;
77432;SDS011;66752;48.576;8.876;2023-04-22T07:09:51;7.70;;;4.18;;
77432;SDS011;66752;48.576;8.876;2023-04-22T07:12:17;7.97;;;4.07;;
77432;SDS011;66752;48.576;8.876;2023-04-22T07:14:43;7.93;;;4.78;;
77432;SDS011;66752;48.576;8.876;2023-04-22T07:17:09;6.65;;;4.32;;
77432;SDS011;66752;48.576;8.876;2023-04-22T07:19:35;7.88;;;4.70;;
77432;SDS011;66752;48.576;8.876;2023-04-22T07:22:01;9.18;;;4.68;;
77432;SDS011;66752;48.576;8.876;2023-04-22T07:24:28;12.45;;;6.57;;
77432;SDS011;66752;48.576;8.876;2023-04-22T07:26:54;8.75;;;5.35;;
77432;SDS011;66752;48.576;8.876;2023-04-22T07:29:20;7.47;;;4.47;;
77432;SDS011;66752;48.576;8.876;2023-04-22T07:31:47;9.48;;;4.78;;
77432;SDS011;66752;48.576;8.876;2023-04-22T07:34:13;8.23;;;4.82;;
77432;SDS011;66752;48.576;8.876;2023-04-22T07:36:39;7.72;;;4.45;;
77432;SDS011;66752;48.576;8.876;2023-04-22T07:39:05;8.95;;;4.45;;
77432;SDS011;66752;48.576;8.876;2023-04-22T07:41:32;32.10;;;15.32;;
77432;SDS011;66752;48.576;8.876;2023-04-22T07:43:58;21.67;;;10.90;;
77432;SDS011;66752;48.576;8.876;2023-04-22T07:48:50;7.65;;;4.60;;
77432;SDS011;66752;48.576;8.876;2023-04-22T07:51:22;7.70;;;4.05;;
77432;SDS011;66752;48.576;8.876;2023-04-22T07:53:49;8.35;;;4.90;;
77432;SDS011;66752;48.576;8.876;2023-04-22T07:56:15;7.53;;;4.68;;
77432;SDS011;66752;48.576;8.876;2023-04-22T07:58:41;8.52;;;5.05;;
77432;SDS011;66752;48.576;8.876;2023-04-22T08:01:07;8.95;;;5.00;;
77432;SDS011;66752;48.576;8.876;2023-04-22T08:03:33;6.60;;;3.85;;
77432;SDS011;66752;48.576;8.876;2023-04-22T08:05:59;7.63;;;4.38;;
77432;SDS011;66752;48.576;8.876;2023-04-22T08:08:25;6.22;;;3.90;;
77432;SDS011;66752;48.576;8.876;2023-04-22T08:10:51;7.65;;;3.85;;
77432;SDS011;66752;48.576;8.876;2023-04-22T08:13:17;10.90;;;4.45;;
77432;SDS011;66752;48.576;8.876;2023-04-22T08:15:43;7.53;;;3.80;;
77432;SDS011;66752;48.576;8.876;2023-04-22T08:18:09;6.57;;;4.00;;
77432;SDS011;66752;48.576;8.876;2023-04-22T08:20:35;7.07;;;3.58;;
77432;SDS011;66752;48.576;8.876;2023-04-22T08:23:01;5.57;;;3.10;;
77432;SDS011;66752;48.576;8.876;2023-04-22T08:25:27;8.75;;;3.50;;
77432;SDS011;66752;48.576;8.876;2023-04-22T08:27:54;6.43;;;3.63;;
77432;SDS011;66752;48.576;8.876;2023-04-22T08:30:20;8.57;;;3.42;;
77432;SDS011;66752;48.576;8.876;2023-04-22T08:32:46;5.97;;;3.00;;
77432;SDS011;66752;48.576;8.876;2023-04-22T08:35:12;6.07;;;3.20;;
77432;SDS011;66752;48.576;8.876;2023-04-22T08:37:39;5.43;;;3.10;;
77432;SDS011;66752;48.576;8.876;2023-04-22T08:40:05;5.38;;;2.53;;
77432;SDS011;66752;48.576;8.876;2023-04-22T08:42:32;6.13;;;3.28;;
77432;SDS011;66752;48.576;8.876;2023-04-22T08:44:58;6.43;;;3.30;;
77432;SDS011;66752;48.576;8.876;2023-04-22T08:47:24;7.28;;;2.90;;
77432;SDS011;66752;48.576;8.876;2023-04-22T08:52:17;5.70;;;3.15;;
77432;SDS011;66752;48.576;8.876;2023-04-22T08:54:43;6.68;;;3.70;;
77432;SDS011;66752;48.576;8.876;2023-04-22T08:57:09;6.15;;;3.03;;
77432;SDS011;66752;48.576;8.876;2023-04-22T08:59:36;6.80;;;3.38;;
77432;SDS011;66752;48.576;8.876;2023-04-22T09:02:02;6.22;;;3.30;;
77432;SDS011;66752;48.576;8.876;2023-04-22T09:04:30;5.28;;;3.13;;
77432;SDS011;66752;48.576;8.876;2023-04-22T09:06:56;7.28;;;3.72;;
77432;SDS011;66752;48.576;8.876;2023-04-22T09:09:23;6.57;;;2.95;;
77432;SDS011;66752;48.576;8.876;2023-04-22T09:11:49;5.63;;;3.15;;
77432;SDS011;66752;48.576;8.876;2023-04-22T09:14:15;6.13;;;3.20;;
77432;SDS011;66752;48.576;8.876;2023-04-22T09:16:45;6.18;;;3.15;;
77432;SDS011;66752;48.576;8.876;2023-04-22T09:19:12;4.50;;;2.13;;
77432;SDS011;66752;48.576;8.876;2023-04-22T09:21:38;5.43;;;2.55;;
77432;SDS011;66752;48.576;8.876;2023-04-22T09:26:30;5.05;;;2.20;;
77432;SDS011;66752;48.576;8.876;2023-04-22T09:28:58;4.53;;;2.10;;
77432;SDS011;66752;48.576;8.876;2023-04-22T09:31:25;5.22;;;2.40;;
77432;SDS011;66752;48.576;8.876;2023-04-22T09:33:53;5.40;;;2.58;;
77432;SDS011;66752;48.576;8.876;2023-04-22T09:38:52;4.28;;;2.05;;
77432;SDS011;66752;48.576;8.876;2023-04-22T09:41:25;5.47;;;2.25;;
77432;SDS011;66752;48.576;8.876;2023-04-22T09:46:17;5.80;;;2.63;;
77432;SDS011;66752;48.576;8.876;2023-04-22T09:48:44;5.90;;;2.40;;
77432;SDS011;66752;48.576;8.876;2023-04-22T09:51:14;4.20;;;2.33;;
77432;SDS011;66752;48.576;8.876;2023-04-22T09:53:41;5.75;;;2.33;;
77432;SDS011;66752;48.576;8.876;2023-04-22T09:56:07;5.78;;;2.05;;
77432;SDS011;66752;48.576;8.876;2023-04-22T09:58:37;4.90;;;2.00;;
77432;SDS011;66752;48.576;8.876;2023-04-22T10:01:03;5.53;;;2.22;;
77432;SDS011;66752;48.576;8.876;2023-04-22T10:03:29;7.18;;;2.80;;
77432;SDS011;66752;48.576;8.876;2023-04-22T10:05:56;5.57;;;2.15;;
77432;SDS011;66752;48.576;8.876;2023-04-22T10:08:22;5.85;;;2.45;;
77432;SDS011;66752;48.576;8.876;2023-04-22T10:10:48;6.53;;;2.55;;
77432;SDS011;66752;48.576;8.876;2023-04-22T10:13:14;5.45;;;2.60;;
77432;SDS011;66752;48.576;8.876;2023-04-22T10:15:41;6.80;;;2.10;;
77432;SDS011;66752;48.576;8.876;2023-04-22T10:18:09;5.25;;;2.08;;
77432;SDS011;66752;48.576;8.876;2023-04-22T10:20:35;5.03;;;2.20;;
77432;SDS011;66752;48.576;8.876;2023-04-22T10:23:03;6.53;;;2.05;;
77432;SDS011;66752;48.576;8.876;2023-04-22T10:25:29;4.50;;;2.40;;
77432;SDS011;66752;48.576;8.876;2023-04-22T10:28:03;5.20;;;2.45;;
77432;SDS011;66752;48.576;8.876;2023-04-22T10:30:30;5.70;;;2.95;;
77432;SDS011;66752;48.576;8.876;2023-04-22T10:33:16;6.03;;;3.13;;
77432;SDS011;66752;48.576;8.876;2023-04-22T10:35:55;4.90;;;2.75;;
77432;SDS011;66752;48.576;8.876;2023-04-22T10:38:28;4.43;;;2.38;;
77432;SDS011;66752;48.576;8.876;2023-04-22T10:41:00;5.10;;;2.38;;
77432;SDS011;66752;48.576;8.876;2023-04-22T10:48:59;6.30;;;2.33;;
77432;SDS011;66752;48.576;8.876;2023-04-22T10:51:43;7.15;;;2.50;;
77432;SDS011;66752;48.576;8.876;2023-04-22T10:56:45;4.47;;;2.42;;
77432;SDS011;66752;48.576;8.876;2023-04-22T10:59:21;5.53;;;2.40;;
77432;SDS011;66752;48.576;8.876;2023-04-22T11:01:47;6.88;;;1.98;;
77432;SDS011;66752;48.576;8.876;2023-04-22T11:04:20;4.53;;;2.00;;
77432;SDS011;66752;48.576;8.876;2023-04-22T11:09:37;6.18;;;2.30;;
77432;SDS011;66752;48.576;8.876;2023-04-22T11:14:48;5.82;;;2.47;;
77432;SDS011;66752;48.576;8.876;2023-04-22T11:17:14;3.80;;;1.92;;
77432;SDS011;66752;48.576;8.876;2023-04-22T11:19:40;4.75;;;2.03;;
77432;SDS011;66752;48.576;8.876;2023-04-22T11:22:06;4.65;;;1.92;;
77432;SDS011;66752;48.576;8.876;2023-04-22T11:24:32;5.40;;;1.92;;
77432;SDS011;66752;48.576;8.876;2023-04-22T11:26:58;4.88;;;2.10;;
77432;SDS011;66752;48.576;8.876;2023-04-22T11:29:25;3.80;;;1.80;;
77432;SDS011;66752;48.576;8.876;2023-04-22T11:31:51;4.80;;;1.92;;
77432;SDS011;66752;48.576;8.876;2023-04-22T11:34:17;4.25;;;1.70;;
77432;SDS011;66752;48.576;8.876;2023-04-22T11:36:45;4.60;;;1.60;;
77432;SDS011;66752;48.576;8.876;2023-04-22T11:39:11;4.65;;;1.77;;
77432;SDS011;66752;48.576;8.876;2023-04-22T11:41:40;4.88;;;1.90;;
77432;SDS011;66752;48.576;8.876;2023-04-22T11:44:06;5.10;;;1.60;;
77432;SDS011;66752;48.576;8.876;2023-04-22T11:46:32;3.28;;;1.40;;
77432;SDS011;66752;48.576;8.876;2023-04-22T11:49:11;6.13;;;1.60;;
77432;SDS011;66752;48.576;8.876;2023-04-22T11:51:50;4.75;;;1.63;;
77432;SDS011;66752;48.576;8.876;2023-04-22T11:54:16;4.63;;;1.70;;
77432;SDS011;66752;48.576;8.876;2023-04-22T11:56:42;6.18;;;1.63;;
77432;SDS011;66752;48.576;8.876;2023-04-22T11:59:08;4.60;;;1.60;;
77432;SDS011;66752;48.576;8.876;2023-04-22T12:01:34;9.80;;;1.90;;
77432;SDS011;66752;48.576;8.876;2023-04-22T12:04:00;7.18;;;1.73;;
77432;SDS011;66752;48.576;8.876;2023-04-22T12:06:28;4.30;;;1.60;;
77432;SDS011;66752;48.576;8.876;2023-04-22T12:08:56;3.42;;;1.70;;
77432;SDS011;66752;48.576;8.876;2023-04-22T12:11:24;4.93;;;1.70;;
77432;SDS011;66752;48.576;8.876;2023-04-22T12:13:50;7.30;;;1.90;;
77432;SDS011;66752;48.576;8.876;2023-04-22T12:16:18;5.43;;;1.60;;
77432;SDS011;66752;48.576;8.876;2023-04-22T12:18:50;4.32;;;1.80;;
77432;SDS011;66752;48.576;8.876;2023-04-22T12:21:18;4.50;;;1.60;;
77432;SDS011;66752;48.576;8.876;2023-04-22T12:23:49;4.60;;;1.90;;
77432;SDS011;66752;48.576;8.876;2023-04-22T12:26:16;3.83;;;1.50;;
77432;SDS011;66752;48.576;8.876;2023-04-22T12:28:43;6.25;;;1.63;;
77432;SDS011;66752;48.576;8.876;2023-04-22T12:31:09;5.88;;;1.80;;
77432;SDS011;66752;48.576;8.876;2023-04-22T12:33:36;4.97;;;1.98;;
77432;SDS011;66752;48.576;8.876;2023-04-22T12:36:02;5.35;;;1.90;;
77432;SDS011;66752;48.576;8.876;2023-04-22T12:38:28;6.22;;;1.60;;
77432;SDS011;66752;48.576;8.876;2023-04-22T12:40:54;3.83;;;1.67;;
77432;SDS011;66752;48.576;8.876;2023-04-22T12:43:20;5.97;;;1.98;;
77432;SDS011;66752;48.576;8.876;2023-04-22T12:45:46;8.55;;;2.17;;
77432;SDS011;66752;48.576;8.876;2023-04-22T12:48:12;3.80;;;1.40;;
77432;SDS011;66752;48.576;8.876;2023-04-22T12:50:39;4.97;;;1.67;;
77432;SDS011;66752;48.576;8.876;2023-04-22T12:53:05;4.78;;;1.73;;
77432;SDS011;66752;48.576;8.876;2023-04-22T12:55:31;7.95;;;2.10;;
77432;SDS011;66752;48.576;8.876;2023-04-22T13:00:23;5.28;;;1.92;;
77432;SDS011;66752;48.576;8.876;2023-04-22T13:02:49;4.18;;;1.55;;
77432;SDS011;66752;48.576;8.876;2023-04-22T13:05:16;4.93;;;1.95;;
77432;SDS011;66752;48.576;8.876;2023-04-22T13:07:43;5.35;;;1.90;;
77432;SDS011;66752;48.576;8.876;2023-04-22T13:10:11;4.55;;;1.70;;
77432;SDS011;66752;48.576;8.876;2023-04-22T13:12:37;4.72;;;1.85;;
77432;SDS011;66752;48.576;8.876;2023-04-22T13:17:30;3.42;;;1.55;;
77432;SDS011;66752;48.576;8.876;2023-04-22T13:19:56;5.20;;;1.80;;
77432;SDS011;66752;48.576;8.876;2023-04-22T13:22:22;5.45;;;2.00;;
77432;SDS011;66752;48.576;8.876;2023-04-22T13:24:48;3.55;;;1.42;;
77432;SDS011;66752;48.576;8.876;2023-04-22T13:27:14;4.72;;;2.38;;
77432;SDS011;66752;48.576;8.876;2023-04-22T13:29:40;5.18;;;1.83;;
77432;SDS011;66752;48.576;8.876;2023-04-22T13:32:06;5.68;;;1.90;;
77432;SDS011;66752;48.576;8.876;2023-04-22T13:34:32;5.68;;;1.90;;
77432;SDS011;66752;48.576;8.876;2023-04-22T13:36:58;3.95;;;1.80;;
77432;SDS011;66752;48.576;8.876;2023-04-22T13:41:51;3.88;;;1.85;;
77432;SDS011;66752;48.576;8.876;2023-04-22T13:44:17;6.13;;;1.88;;
77432;SDS011;66752;48.576;8.876;2023-04-22T13:46:43;5.28;;;1.70;;
77432;SDS011;66752;48.576;8.876;2023-04-22T13:49:09;4.75;;;1.98;;
77432;SDS011;66752;48.576;8.876;2023-04-22T13:51:35;3.78;;;1.70;;
77432;SDS011;66752;48.576;8.876;2023-04-22T13:54:01;5.20;;;1.60;;
77432;SDS011;66752;48.576;8.876;2023-04-22T13:56:28;5.45;;;2.20;;
77432;SDS011;66752;48.576;8.876;2023-04-22T13:58:54;4.00;;;1.70;;
77432;SDS011;66752;48.576;8.876;2023-04-22T14:01:20;4.30;;;1.80;;
77432;SDS011;66752;48.576;8.876;2023-04-22T14:03:46;4.45;;;2.13;;
77432;SDS011;66752;48.576;8.876;2023-04-22T14:06:13;5.93;;;1.85;;
77432;SDS011;66752;48.576;8.876;2023-04-22T14:11:05;6.40;;;2.10;;
77432;SDS011;66752;48.576;8.876;2023-04-22T14:13:31;4.50;;;2.00;;
77432;SDS011;66752;48.576;8.876;2023-04-22T14:15:57;7.28;;;2.00;;
77432;SDS011;66752;48.576;8.876;2023-04-22T14:18:24;7.70;;;2.60;;
77432;SDS011;66752;48.576;8.876;2023-04-22T14:20:50;5.97;;;2.35;;
77432;SDS011;66752;48.576;8.876;2023-04-22T14:23:17;5.47;;;2.20;;
77432;SDS011;66752;48.576;8.876;2023-04-22T14:28:10;5.00;;;1.90;;
77432;SDS011;66752;48.576;8.876;2023-04-22T14:30:36;5.22;;;2.25;;
77432;SDS011;66752;48.576;8.876;2023-04-22T14:33:02;6.05;;;2.70;;
77432;SDS011;66752;48.576;8.876;2023-04-22T14:35:31;4.47;;;2.08;;
77432;SDS011;66752;48.576;8.876;2023-04-22T14:37:57;4.90;;;1.80;;
77432;SDS011;66752;48.576;8.876;2023-04-22T14:40:23;5.07;;;2.08;;
77432;SDS011;66752;48.576;8.876;2023-04-22T14:42:52;5.03;;;2.10;;
77432;SDS011;66752;48.576;8.876;2023-04-22T14:45:18;6.07;;;2.10;;
77432;SDS011;66752;48.576;8.876;2023-04-22T14:47:44;5.50;;;1.80;;
77432;SDS011;66752;48.576;8.876;2023-04-22T14:50:10;5.13;;;1.83;;
77432;SDS011;66752;48.576;8.876;2023-04-22T14:52:36;6.63;;;2.13;;
77432;SDS011;66752;48.576;8.876;2023-04-22T14:55:02;4.70;;;2.00;;
77432;SDS011;66752;48.576;8.876;2023-04-22T14:57:28;4.63;;;2.00;;
77432;SDS011;66752;48.576;8.876;2023-04-22T14:59:54;3.83;;;1.73;;
77432;SDS011;66752;48.576;8.876;2023-04-22T15:02:20;5.25;;;1.98;;
77432;SDS011;66752;48.576;8.876;2023-04-22T15:04:46;5.13;;;2.05;;
77432;SDS011;66752;48.576;8.876;2023-04-22T15:07:12;6.40;;;2.15;;
77432;SDS011;66752;48.576;8.876;2023-04-22T15:09:38;5.60;;;2.10;;
77432;SDS011;66752;48.576;8.876;2023-04-22T15:12:04;4.38;;;2.00;;
77432;SDS011;66752;48.576;8.876;2023-04-22T15:14:30;7.47;;;2.25;;
77432;SDS011;66752;48.576;8.876;2023-04-22T15:16:57;8.18;;;1.85;;
77432;SDS011;66752;48.576;8.876;2023-04-22T15:19:23;4.57;;;2.15;;
77432;SDS011;66752;48.576;8.876;2023-04-22T15:21:49;6.22;;;2.08;;
77432;SDS011;66752;48.576;8.876;2023-04-22T15:24:15;5.40;;;2.10;;
77432;SDS011;66752;48.576;8.876;2023-04-22T15:26:41;7.13;;;1.92;;
77432;SDS011;66752;48.576;8.876;2023-04-22T15:29:07;5.00;;;1.90;;
77432;SDS011;66752;48.576;8.876;2023-04-22T15:31:33;3.65;;;1.70;;